createdAt,value
2017-12-27T00:01:32.219Z,99542.05
2017-12-27T00:04:04.337Z,99537.88
2017-12-27T00:06:36.311Z,99528.69
2017-12-27T00:09:08.518Z,99535.00
2017-12-27T00:11:40.558Z,99529.88
2017-12-27T00:14:12.353Z,99525.01
2017-12-27T00:16:44.228Z,99514.03
2017-12-27T00:22:13.451Z,99509.08
2017-12-27T00:24:45.513Z,99492.33
2017-12-27T00:27:17.482Z,99493.05
2017-12-27T00:29:49.578Z,99480.16
2017-12-27T00:32:15.506Z,99482.67
2017-12-27T00:34:41.321Z,99479.20
2017-12-27T00:37:07.357Z,99480.77
2017-12-27T00:39:33.217Z,99477.88
2017-12-27T00:41:59.031Z,99472.12
2017-12-27T00:44:24.839Z,99467.45
2017-12-27T00:46:50.650Z,99469.38
2017-12-27T00:49:16.457Z,99468.53
2017-12-27T00:51:42.268Z,99458.55
2017-12-27T00:54:08.106Z,99459.57
2017-12-27T00:56:33.914Z,99460.38
2017-12-27T00:58:59.725Z,99456.39
2017-12-27T01:01:25.539Z,99455.15
2017-12-27T01:03:51.354Z,99457.86
2017-12-27T01:06:17.177Z,99459.42
2017-12-27T01:08:42.998Z,99453.03
2017-12-27T01:11:08.810Z,99450.13
2017-12-27T01:13:34.669Z,99450.51
2017-12-27T01:16:00.504Z,99446.37
2017-12-27T01:18:26.313Z,99445.80
2017-12-27T01:20:52.130Z,99444.39
2017-12-27T01:23:17.942Z,99438.58
2017-12-27T01:25:43.746Z,99433.64
2017-12-27T01:28:09.561Z,99436.27
2017-12-27T01:30:35.374Z,99424.66
2017-12-27T01:33:01.193Z,99427.41
2017-12-27T01:35:27.050Z,99425.18
2017-12-27T01:37:52.853Z,99430.11
2017-12-27T01:40:18.666Z,99426.20
2017-12-27T01:42:44.686Z,99432.17
2017-12-27T01:45:10.505Z,99436.16
2017-12-27T01:47:36.418Z,99433.05
2017-12-27T01:50:02.301Z,99426.80
2017-12-27T01:52:28.113Z,99423.79
2017-12-27T01:54:53.945Z,99423.18
2017-12-27T01:57:19.809Z,99421.20
2017-12-27T01:59:45.613Z,99423.16
2017-12-27T02:02:11.418Z,99420.94
2017-12-27T02:04:37.470Z,99423.14
2017-12-27T02:07:03.282Z,99412.94
2017-12-27T02:09:29.102Z,99411.98
2017-12-27T02:11:54.910Z,99406.28
2017-12-27T02:14:20.715Z,99411.52
2017-12-27T02:16:46.562Z,99398.97
2017-12-27T02:19:13.329Z,99404.97
2017-12-27T02:21:39.215Z,99399.16
2017-12-27T02:24:05.024Z,99397.27
2017-12-27T02:26:30.873Z,99381.77
2017-12-27T02:28:56.681Z,99379.03
2017-12-27T02:31:22.482Z,99374.05
2017-12-27T02:33:48.321Z,99379.36
2017-12-27T02:36:14.118Z,99377.21
2017-12-27T02:38:45.885Z,99377.30
2017-12-27T02:41:11.683Z,99369.67
2017-12-27T02:43:38.534Z,99370.00
2017-12-27T02:46:04.338Z,99363.24
2017-12-27T02:48:30.993Z,99346.49
2017-12-27T02:50:56.864Z,99339.27
2017-12-27T02:53:23.548Z,99339.78
2017-12-27T02:55:49.342Z,99334.91
2017-12-27T02:58:15.181Z,99338.95
2017-12-27T03:00:41.146Z,99325.15
2017-12-27T03:03:06.946Z,99322.07
2017-12-27T03:05:33.005Z,99319.62
2017-12-27T03:07:58.813Z,99322.34
2017-12-27T03:10:25.633Z,99318.16
2017-12-27T03:12:51.430Z,99315.24
2017-12-27T03:15:17.229Z,99311.69
2017-12-27T03:17:43.814Z,99305.67
2017-12-27T03:20:10.667Z,99309.88
2017-12-27T03:22:36.487Z,99307.41
2017-12-27T03:25:02.329Z,99300.72
2017-12-27T03:27:28.133Z,99299.05
2017-12-27T03:29:53.933Z,99291.67
2017-12-27T03:32:19.760Z,99295.48
2017-12-27T03:34:45.615Z,99280.69
2017-12-27T03:37:11.412Z,99278.98
2017-12-27T03:39:37.216Z,99275.67
2017-12-27T03:42:03.017Z,99271.92
2017-12-27T03:44:28.856Z,99264.06
2017-12-27T03:46:55.585Z,99260.05
2017-12-27T03:49:21.432Z,99246.33
2017-12-27T03:51:47.425Z,99248.48
2017-12-27T03:54:13.232Z,99244.20
2017-12-27T03:56:39.037Z,99240.95
2017-12-27T03:59:04.841Z,99244.08
2017-12-27T04:01:31.612Z,99233.53
2017-12-27T04:03:58.193Z,99236.11
2017-12-27T04:06:24.918Z,99239.50
2017-12-27T04:08:51.702Z,99237.97
2017-12-27T04:11:18.476Z,99233.88
2017-12-27T04:13:44.276Z,99227.98
2017-12-27T04:16:10.263Z,99221.28
2017-12-27T04:18:36.919Z,99228.05
2017-12-27T04:21:02.767Z,99225.14
2017-12-27T04:23:29.425Z,99221.76
2017-12-27T04:25:55.224Z,99219.86
2017-12-27T04:28:21.914Z,99222.40
2017-12-27T04:30:47.718Z,99220.33
2017-12-27T04:33:13.521Z,99220.07
2017-12-27T04:35:40.137Z,99211.53
2017-12-27T04:38:05.938Z,99203.36
2017-12-27T04:40:31.737Z,99200.48
2017-12-27T04:42:57.537Z,99192.74
2017-12-27T04:45:23.353Z,99182.06
2017-12-27T04:47:49.157Z,99176.80
2017-12-27T04:50:15.909Z,99191.66
2017-12-27T04:52:42.726Z,99185.86
2017-12-27T04:55:08.537Z,99176.34
2017-12-27T04:57:35.302Z,99170.06
2017-12-27T05:00:01.122Z,99160.47
2017-12-27T05:02:27.314Z,99146.09
2017-12-27T05:04:53.122Z,99146.14
2017-12-27T05:07:18.925Z,99140.19
2017-12-27T05:09:44.729Z,99125.67
2017-12-27T05:12:10.573Z,99137.05
2017-12-27T05:14:37.189Z,99134.91
2017-12-27T05:17:02.990Z,99128.70
2017-12-27T05:19:29.625Z,99121.97
2017-12-27T05:21:55.429Z,99119.43
2017-12-27T05:24:21.233Z,99119.27
2017-12-27T05:26:47.041Z,99107.34
2017-12-27T05:29:12.841Z,99102.41
2017-12-27T05:31:38.633Z,99106.39
2017-12-27T05:34:04.481Z,99101.28
2017-12-27T05:36:30.277Z,99104.49
2017-12-27T05:38:56.089Z,99099.78
2017-12-27T05:41:21.894Z,99098.72
2017-12-27T05:43:47.691Z,99090.80
2017-12-27T05:46:13.497Z,99084.76
2017-12-27T05:48:39.301Z,99081.81
2017-12-27T05:51:05.101Z,99076.09
2017-12-27T05:53:30.909Z,99071.58
2017-12-27T05:55:57.625Z,99069.11
2017-12-27T05:58:23.467Z,99069.27
2017-12-27T06:00:49.321Z,99068.97
2017-12-27T06:03:15.126Z,99065.52
2017-12-27T06:05:41.927Z,99060.41
2017-12-27T06:08:08.669Z,99067.83
2017-12-27T06:10:34.482Z,99068.33
2017-12-27T06:13:00.292Z,99063.05
2017-12-27T06:15:26.360Z,99064.61
2017-12-27T06:17:52.164Z,99055.21
2017-12-27T06:20:17.964Z,99055.70
2017-12-27T06:22:44.809Z,99048.56
2017-12-27T06:25:10.717Z,99046.20
2017-12-27T06:27:37.486Z,99034.94
2017-12-27T06:30:04.204Z,99030.31
2017-12-27T06:32:30.015Z,99025.87
2017-12-27T06:34:55.822Z,99029.75
2017-12-27T06:37:21.624Z,99028.05
2017-12-27T06:39:47.472Z,99025.31
2017-12-27T06:42:14.350Z,99022.53
2017-12-27T06:44:40.185Z,99013.11
2017-12-27T06:47:06.037Z,99007.65
2017-12-27T06:49:31.845Z,99010.45
2017-12-27T06:51:57.648Z,99008.08
2017-12-27T06:54:24.450Z,99005.46
2017-12-27T06:56:50.267Z,98998.44
2017-12-27T06:59:16.069Z,98998.27
2017-12-27T07:01:48.669Z,98991.76
2017-12-27T07:04:14.612Z,98991.61
2017-12-27T07:06:40.580Z,98992.84
2017-12-27T07:09:07.221Z,99003.55
2017-12-27T07:11:34.065Z,98999.88
2017-12-27T07:13:59.872Z,98994.16
2017-12-27T07:16:25.677Z,98996.98
2017-12-27T07:18:51.487Z,98990.29
2017-12-27T07:21:17.338Z,98990.44
2017-12-27T07:23:43.147Z,98986.66
2017-12-27T07:26:08.958Z,98983.53
2017-12-27T07:28:35.749Z,98981.72
2017-12-27T07:31:01.578Z,98980.49
2017-12-27T07:33:27.430Z,98976.35
2017-12-27T07:35:54.078Z,98973.05
2017-12-27T07:38:20.927Z,98975.42
2017-12-27T07:40:47.598Z,98969.23
2017-12-27T07:43:14.378Z,98960.92
2017-12-27T07:45:41.186Z,98960.68
2017-12-27T07:48:08.000Z,98949.61
2017-12-27T07:50:34.764Z,98949.05
2017-12-27T07:53:00.574Z,98949.68
2017-12-27T07:55:27.265Z,98950.02
2017-12-27T07:57:54.080Z,98943.62
2017-12-27T08:00:19.917Z,98942.44
2017-12-27T08:02:46.685Z,98935.53
2017-12-27T08:05:13.317Z,98927.94
2017-12-27T08:07:39.182Z,98921.73
2017-12-27T08:10:04.988Z,98922.50
2017-12-27T08:12:31.681Z,98911.45
2017-12-27T08:14:57.486Z,98907.74
2017-12-27T08:17:24.149Z,98899.73
2017-12-27T08:19:51.017Z,98887.38
2017-12-27T08:22:17.621Z,98889.25
2017-12-27T08:24:43.578Z,98885.55
2017-12-27T08:27:09.388Z,98877.30
2017-12-27T08:29:36.267Z,98884.14
2017-12-27T08:32:02.854Z,98874.41
2017-12-27T08:34:29.577Z,98876.14
2017-12-27T08:36:56.346Z,98870.30
2017-12-27T08:39:23.137Z,98866.41
2017-12-27T08:41:49.906Z,98865.91
2017-12-27T08:44:17.420Z,98856.94
2017-12-27T08:46:43.290Z,98853.39
2017-12-27T08:49:09.098Z,98845.47
2017-12-27T08:51:34.909Z,98853.06
2017-12-27T08:54:00.710Z,98849.25
2017-12-27T08:56:26.520Z,98843.24
2017-12-27T08:58:52.328Z,98847.64
2017-12-27T09:01:18.925Z,98849.92
2017-12-27T09:03:44.737Z,98835.23
2017-12-27T09:06:10.566Z,98834.42
2017-12-27T09:08:37.229Z,98822.81
2017-12-27T09:11:03.038Z,98819.35
2017-12-27T09:13:28.886Z,98824.69
2017-12-27T09:15:54.717Z,98820.31
2017-12-27T09:18:21.529Z,98824.54
2017-12-27T09:20:48.240Z,98820.81
2017-12-27T09:23:14.048Z,98821.08
2017-12-27T09:25:39.882Z,98826.94
2017-12-27T09:28:05.740Z,98820.17
2017-12-27T09:30:31.541Z,98817.61
2017-12-27T09:32:57.355Z,98823.07
2017-12-27T09:35:23.169Z,98818.27
2017-12-27T09:37:48.985Z,98809.94
2017-12-27T09:40:14.794Z,98808.56
2017-12-27T09:42:40.618Z,98797.75
2017-12-27T09:45:06.464Z,98789.59
2017-12-27T09:47:32.269Z,98785.73
2017-12-27T09:49:58.078Z,98784.33
2017-12-27T09:52:24.790Z,98775.59
2017-12-27T09:54:51.549Z,98774.19
2017-12-27T09:57:17.358Z,98766.59
2017-12-27T09:59:43.167Z,98759.00
2017-12-27T10:02:08.979Z,98758.91
2017-12-27T10:04:34.789Z,98744.17
2017-12-27T10:07:00.598Z,98747.77
2017-12-27T10:09:26.417Z,98737.97
2017-12-27T10:11:52.229Z,98730.99
2017-12-27T10:14:18.701Z,98728.58
2017-12-27T10:16:44.518Z,98722.17
2017-12-27T10:19:10.321Z,98718.70
2017-12-27T10:21:36.147Z,98707.88
2017-12-27T10:24:02.933Z,98698.52
2017-12-27T10:26:28.746Z,98701.23
2017-12-27T10:28:54.646Z,98689.96
2017-12-27T10:31:20.490Z,98691.73
2017-12-27T10:33:47.122Z,98682.47
2017-12-27T10:36:12.943Z,98674.58
2017-12-27T10:38:39.717Z,98663.53
2017-12-27T10:41:06.477Z,98652.45
2017-12-27T10:43:32.329Z,98644.94
2017-12-27T10:45:59.171Z,98633.92
2017-12-27T10:48:24.988Z,98635.48
2017-12-27T10:50:51.802Z,98637.33
2017-12-27T10:53:17.687Z,98631.59
2017-12-27T10:55:44.442Z,98626.81
2017-12-27T10:58:10.263Z,98617.50
2017-12-27T11:00:37.001Z,98615.47
2017-12-27T11:03:02.818Z,98607.19
2017-12-27T11:05:29.594Z,98607.84
2017-12-27T11:07:55.406Z,98608.32
2017-12-27T11:10:21.214Z,98594.39
2017-12-27T11:12:47.870Z,98586.84
2017-12-27T11:15:14.697Z,98587.67
2017-12-27T11:17:41.480Z,98582.70
2017-12-27T11:20:08.229Z,98579.87
2017-12-27T11:22:35.013Z,98580.81
2017-12-27T11:25:01.707Z,98567.86
2017-12-27T11:27:28.297Z,98556.37
2017-12-27T11:29:54.107Z,98556.34
2017-12-27T11:32:19.926Z,98549.81
2017-12-27T11:34:45.745Z,98544.48
2017-12-27T11:37:11.594Z,98546.59
2017-12-27T11:39:37.725Z,98537.30
2017-12-27T11:42:03.610Z,98527.82
2017-12-27T11:44:29.421Z,98527.50
2017-12-27T11:46:56.135Z,98517.73
2017-12-27T11:49:22.907Z,98516.09
2017-12-27T11:51:48.768Z,98514.03
2017-12-27T11:54:15.149Z,98496.11
2017-12-27T11:56:40.997Z,98490.48
2017-12-27T11:59:06.815Z,98480.60
2017-12-27T12:01:32.667Z,98482.38
2017-12-27T12:03:58.479Z,98477.22
2017-12-27T12:06:25.156Z,98471.39
2017-12-27T12:08:50.963Z,98456.74
2017-12-27T12:11:16.846Z,98453.45
2017-12-27T12:13:42.644Z,98440.47
2017-12-27T12:16:08.478Z,98443.55
2017-12-27T12:18:34.682Z,98437.73
2017-12-27T12:21:01.469Z,98431.95
2017-12-27T12:23:27.314Z,98434.19
2017-12-27T12:25:53.215Z,98427.94
2017-12-27T12:28:19.043Z,98430.10
2017-12-27T12:30:44.855Z,98422.66
2017-12-27T12:33:10.676Z,98409.52
2017-12-27T12:35:36.477Z,98405.50
2017-12-27T12:38:02.289Z,98403.55
2017-12-27T12:40:28.102Z,98398.27
2017-12-27T12:42:53.921Z,98392.56
2017-12-27T12:45:19.743Z,98390.64
2017-12-27T12:47:45.667Z,98385.52
2017-12-27T12:50:11.494Z,98382.98
2017-12-27T12:52:37.315Z,98378.45
2017-12-27T12:55:03.142Z,98372.41
2017-12-27T12:57:28.957Z,98367.77
2017-12-27T12:59:54.773Z,98368.69
2017-12-27T13:02:20.665Z,98366.42
2017-12-27T13:04:46.481Z,98355.74
2017-12-27T13:07:12.375Z,98350.94
2017-12-27T13:09:39.098Z,98344.59
2017-12-27T13:12:04.926Z,98346.31
2017-12-27T13:14:31.542Z,98342.92
2017-12-27T13:16:57.374Z,98343.11
2017-12-27T13:19:24.098Z,98340.88
2017-12-27T13:21:49.932Z,98337.73
2017-12-27T13:24:16.555Z,98339.50
2017-12-27T13:26:42.405Z,98339.31
2017-12-27T13:29:08.241Z,98329.08
2017-12-27T13:31:34.063Z,98332.40
2017-12-27T13:33:59.881Z,98337.08
2017-12-27T13:36:25.706Z,98327.64
2017-12-27T13:38:51.530Z,98321.55
2017-12-27T13:41:18.293Z,98320.23
2017-12-27T13:43:44.129Z,98316.29
2017-12-27T13:46:09.938Z,98316.07
2017-12-27T13:48:35.741Z,98304.32
2017-12-27T13:51:01.821Z,98307.48
2017-12-27T13:53:27.649Z,98305.97
2017-12-27T13:55:53.469Z,98304.65
2017-12-27T13:58:19.323Z,98296.92
2017-12-27T14:00:45.134Z,98295.45
2017-12-27T14:03:10.955Z,98296.41
2017-12-27T14:05:36.960Z,98300.95
2017-12-27T14:08:02.774Z,98303.23
2017-12-27T14:10:28.587Z,98300.19
2017-12-27T14:12:54.410Z,98300.37
2017-12-27T14:15:20.305Z,98297.73
2017-12-27T14:17:46.118Z,98298.89
2017-12-27T14:20:11.933Z,98294.25
2017-12-27T14:22:37.753Z,98290.58
2017-12-27T14:25:04.430Z,98290.37
2017-12-27T14:27:31.208Z,98286.39
2017-12-27T14:30:01.084Z,98288.90
2017-12-27T14:32:23.836Z,98283.40
2017-12-27T14:34:49.684Z,98294.78
2017-12-27T14:37:15.502Z,98288.19
2017-12-27T14:39:41.421Z,98283.82
2017-12-27T14:42:07.983Z,98280.27
2017-12-27T14:44:34.809Z,98273.66
2017-12-27T14:47:01.638Z,98268.17
2017-12-27T14:49:27.501Z,98269.84
2017-12-27T14:51:53.315Z,98263.98
2017-12-27T14:54:19.164Z,98261.85
2017-12-27T14:56:45.978Z,98262.34
2017-12-27T14:59:11.819Z,98264.01
2017-12-27T15:01:38.515Z,98263.33
2017-12-27T15:04:05.326Z,98256.06
2017-12-27T15:06:32.067Z,98255.30
2017-12-27T15:08:57.879Z,98253.50
2017-12-27T15:11:24.002Z,98253.16
2017-12-27T15:13:49.830Z,98247.33
2017-12-27T15:16:15.634Z,98252.41
2017-12-27T15:18:41.436Z,98241.05
2017-12-27T15:21:07.277Z,98236.88
2017-12-27T15:23:33.081Z,98235.56
2017-12-27T15:25:59.837Z,98227.17
2017-12-27T15:28:25.638Z,98223.52
2017-12-27T15:30:51.441Z,98233.12
2017-12-27T15:33:17.249Z,98233.80
2017-12-27T15:35:43.058Z,98231.94
2017-12-27T15:38:08.866Z,98235.44
2017-12-27T15:40:34.698Z,98236.59
2017-12-27T15:43:01.418Z,98235.80
2017-12-27T15:45:27.226Z,98238.49
2017-12-27T15:47:53.082Z,98244.58
2017-12-27T15:50:18.896Z,98253.52
2017-12-27T15:52:44.745Z,98247.11
2017-12-27T15:55:10.559Z,98256.09
2017-12-27T15:57:36.361Z,98259.47
2017-12-27T16:00:02.170Z,98255.51
2017-12-27T16:02:27.995Z,98250.09
2017-12-27T16:04:53.815Z,98247.59
2017-12-27T16:07:19.642Z,98248.15
2017-12-27T16:09:45.486Z,98241.34
2017-12-27T16:12:12.329Z,98234.12
2017-12-27T16:14:38.202Z,98229.45
2017-12-27T16:17:04.941Z,98235.39
2017-12-27T16:19:31.671Z,98232.13
2017-12-27T16:21:57.482Z,98232.50
2017-12-27T16:24:23.293Z,98219.97
2017-12-27T16:26:50.093Z,98218.74
2017-12-27T16:29:16.922Z,98216.38
2017-12-27T16:31:42.748Z,98215.91
2017-12-27T16:34:08.563Z,98216.84
2017-12-27T16:36:34.410Z,98200.16
2017-12-27T16:39:00.237Z,98204.49
2017-12-27T16:41:26.046Z,98195.52
2017-12-27T16:43:52.830Z,98211.55
2017-12-27T16:46:18.673Z,98209.56
2017-12-27T16:48:44.482Z,98208.41
2017-12-27T16:51:10.330Z,98224.70
2017-12-27T16:53:36.134Z,98229.63
2017-12-27T16:56:01.942Z,98231.31
2017-12-27T16:58:27.784Z,98232.44
2017-12-27T17:00:53.645Z,98238.84
2017-12-27T17:03:19.457Z,98236.30
2017-12-27T17:05:45.303Z,98217.33
2017-12-27T17:08:11.150Z,98214.64
2017-12-27T17:10:36.969Z,98220.77
2017-12-27T17:13:02.775Z,98225.73
2017-12-27T17:15:28.582Z,98219.64
2017-12-27T17:17:55.401Z,98218.55
2017-12-27T17:20:21.198Z,98228.02
2017-12-27T17:22:47.024Z,98227.92
2017-12-27T17:25:12.830Z,98240.08
2017-12-27T17:27:38.637Z,98236.36
2017-12-27T17:30:04.452Z,98234.30
2017-12-27T17:32:30.253Z,98234.92
2017-12-27T17:34:56.062Z,98223.91
2017-12-27T17:37:21.870Z,98217.24
2017-12-27T17:39:47.695Z,98223.23
2017-12-27T17:42:13.510Z,98220.28
2017-12-27T17:44:39.370Z,98220.74
2017-12-27T17:47:05.178Z,98214.74
2017-12-27T17:49:31.906Z,98209.58
2017-12-27T17:51:58.656Z,98210.48
2017-12-27T17:54:24.481Z,98212.24
2017-12-27T17:56:50.293Z,98216.38
2017-12-27T17:59:16.146Z,98214.52
2017-12-27T18:01:41.981Z,98221.98
2017-12-27T18:04:07.786Z,98226.52
2017-12-27T18:06:33.593Z,98216.52
2017-12-27T18:08:59.405Z,98220.39
2017-12-27T18:11:25.209Z,98222.27
2017-12-27T18:13:51.009Z,98222.89
2017-12-27T18:16:17.653Z,98223.46
2017-12-27T18:18:43.458Z,98222.99
2017-12-27T18:21:09.313Z,98222.89
2017-12-27T18:23:35.157Z,98220.39
2017-12-27T18:26:01.113Z,98216.02
2017-12-27T18:28:27.128Z,98220.11
2017-12-27T18:30:53.100Z,98225.94
2017-12-27T18:33:19.925Z,98227.06
2017-12-27T18:35:45.814Z,98230.36
2017-12-27T18:38:11.729Z,98232.70
2017-12-27T18:40:37.530Z,98228.27
2017-12-27T18:43:03.329Z,98236.59
2017-12-27T18:45:29.137Z,98238.46
2017-12-27T18:47:54.982Z,98242.36
2017-12-27T18:50:20.934Z,98247.88
2017-12-27T18:52:46.794Z,98248.59
2017-12-27T18:55:12.617Z,98255.10
2017-12-27T18:57:38.447Z,98254.14
2017-12-27T19:00:04.282Z,98249.95
2017-12-27T19:02:31.125Z,98251.91
2017-12-27T19:04:56.946Z,98246.81
2017-12-27T19:07:22.768Z,98248.70
2017-12-27T19:09:48.593Z,98250.70
2017-12-27T19:12:14.398Z,98246.55
2017-12-27T19:14:40.373Z,98246.65
2017-12-27T19:17:06.193Z,98244.23
2017-12-27T19:19:32.040Z,98239.22
2017-12-27T19:21:57.922Z,98236.22
2017-12-27T19:24:23.809Z,98234.55
2017-12-27T19:26:49.663Z,98234.61
2017-12-27T19:29:15.498Z,98243.63
2017-12-27T19:31:41.631Z,98251.72
2017-12-27T19:34:07.575Z,98257.05
2017-12-27T19:36:33.536Z,98254.16
2017-12-27T19:38:59.470Z,98255.59
2017-12-27T19:41:25.522Z,98250.78
2017-12-27T19:43:51.505Z,98250.09
2017-12-27T19:46:17.674Z,98250.30
2017-12-27T19:48:43.681Z,98252.64
2017-12-27T19:51:10.580Z,98251.22
2017-12-27T19:53:37.294Z,98249.13
2017-12-27T19:56:04.133Z,98247.05
2017-12-27T19:58:29.937Z,98245.73
2017-12-27T20:00:55.754Z,98247.59
2017-12-27T20:03:21.560Z,98248.09
2017-12-27T20:05:48.314Z,98246.05
2017-12-27T20:08:15.030Z,98250.33
2017-12-27T20:10:41.731Z,98244.38
2017-12-27T20:13:07.545Z,98243.81
2017-12-27T20:15:33.386Z,98245.19
2017-12-27T20:17:59.197Z,98242.16
2017-12-27T20:20:25.002Z,98236.98
2017-12-27T20:22:50.925Z,98235.55
2017-12-27T20:25:16.733Z,98228.52
2017-12-27T20:27:43.395Z,98237.73
2017-12-27T20:30:10.105Z,98239.81
2017-12-27T20:32:35.913Z,98231.34
2017-12-27T20:35:01.725Z,98234.18
2017-12-27T20:37:27.659Z,98229.52
2017-12-27T20:39:53.465Z,98227.66
2017-12-27T20:42:19.298Z,98232.50
2017-12-27T20:44:45.111Z,98228.13
2017-12-27T20:47:10.924Z,98233.84
2017-12-27T20:49:37.634Z,98236.45
2017-12-27T20:52:03.441Z,98240.58
2017-12-27T20:54:30.077Z,98243.55
2017-12-27T20:56:55.898Z,98242.91
2017-12-27T20:59:21.709Z,98238.58
2017-12-27T21:01:48.403Z,98236.36
2017-12-27T21:04:15.165Z,98232.48
2017-12-27T21:06:41.009Z,98233.31
2017-12-27T21:09:06.813Z,98236.77
2017-12-27T21:11:32.749Z,98232.75
2017-12-27T21:13:58.553Z,98231.17
2017-12-27T21:16:24.454Z,98230.94
2017-12-27T21:18:50.268Z,98231.44
2017-12-27T21:21:16.073Z,98239.09
2017-12-27T21:23:43.065Z,98237.08
2017-12-27T21:26:09.745Z,98233.94
2017-12-27T21:28:36.498Z,98239.09
2017-12-27T21:31:03.174Z,98241.53
2017-12-27T21:33:28.990Z,98247.56
2017-12-27T21:35:55.010Z,98253.81
2017-12-27T21:38:21.073Z,98258.11
2017-12-27T21:40:46.938Z,98254.69
2017-12-27T21:43:12.810Z,98249.77
2017-12-27T21:45:38.698Z,98241.75
2017-12-27T21:48:11.566Z,98244.59
2017-12-27T21:50:37.390Z,98245.88
2017-12-27T21:53:03.226Z,98240.85
2017-12-27T21:55:29.058Z,98244.88
2017-12-27T21:58:02.169Z,98247.11
2017-12-27T22:00:34.011Z,98235.63
2017-12-27T22:02:59.814Z,98247.69
2017-12-27T22:05:25.685Z,98245.58
2017-12-27T22:07:51.502Z,98257.05
2017-12-27T22:10:17.314Z,98253.20
2017-12-27T22:12:43.145Z,98255.50
2017-12-27T22:15:08.965Z,98256.98
2017-12-27T22:17:34.802Z,98252.80
2017-12-27T22:20:00.821Z,98257.89
2017-12-27T22:22:26.629Z,98259.52
2017-12-27T22:24:52.662Z,98261.48
2017-12-27T22:27:18.469Z,98253.77
2017-12-27T22:29:44.493Z,98257.78
2017-12-27T22:32:10.313Z,98253.38
2017-12-27T22:34:36.153Z,98258.00
2017-12-27T22:37:02.779Z,98253.63
2017-12-27T22:39:29.546Z,98253.49
2017-12-27T22:41:55.361Z,98253.91
2017-12-27T22:44:21.205Z,98251.09
2017-12-27T22:46:47.015Z,98258.55
2017-12-27T22:49:12.821Z,98250.16
2017-12-27T22:51:38.642Z,98247.23
2017-12-27T22:54:04.453Z,98253.92
2017-12-27T22:56:30.313Z,98253.83
2017-12-27T22:58:56.122Z,98247.86
2017-12-27T23:01:21.929Z,98246.41
2017-12-27T23:03:48.788Z,98243.15
2017-12-27T23:06:14.598Z,98239.14
2017-12-27T23:08:40.433Z,98244.32
2017-12-27T23:13:38.614Z,98247.50
2017-12-27T23:16:04.425Z,98255.28
2017-12-27T23:18:31.093Z,98245.33
2017-12-27T23:20:57.809Z,98247.37
2017-12-27T23:23:24.669Z,98239.71
2017-12-27T23:25:51.471Z,98246.05
2017-12-27T23:28:17.278Z,98252.97
2017-12-27T23:30:43.901Z,98248.84
2017-12-27T23:33:10.595Z,98251.73
2017-12-27T23:35:37.425Z,98256.00
2017-12-27T23:38:03.235Z,98248.43
2017-12-27T23:40:30.065Z,98246.95
2017-12-27T23:42:55.885Z,98249.27
2017-12-27T23:45:21.689Z,98253.52
2017-12-27T23:47:48.341Z,98255.86
2017-12-27T23:50:15.098Z,98255.80
2017-12-27T23:52:41.778Z,98256.88
2017-12-27T23:55:07.581Z,98250.92
2017-12-27T23:57:33.577Z,98247.81
2017-12-27T23:59:59.466Z,98248.45
